Time;durP1;ratioP1;P1;durP2;ratioP2;P2;SDS_P1;SDS_P2;PMS_P1;PMS_P2;Temp;Humidity;BMP_temperature;BMP_pressure;BME280_temperature;BME280_humidity;BME280_pressure;Samples;Min_cycle;Max_cycle;Signal;HPM_P1;HPM_P2
2022/03/05 00:01:00;;;;;;;216.73;102.40;;;2.50;99.90;;;;;;5054177;28;20040;-76
2022/03/05 00:03:26;;;;;;;219.85;102.03;;;2.50;99.90;;;;;;5054087;28;20032;-75
2022/03/05 00:05:52;;;;;;;212.23;103.30;;;2.40;99.90;;;;;;5054201;28;20017;-75
2022/03/05 00:08:18;;;;;;;240.63;111.50;;;2.40;99.90;;;;;;5053926;28;20388;-75
2022/03/05 00:10:44;;;;;;;228.10;110.18;;;2.30;99.90;;;;;;5053755;28;20379;-75
2022/03/05 00:13:10;;;;;;;223.55;108.22;;;2.30;99.90;;;;;;5053498;28;20025;-75
2022/03/05 00:15:36;;;;;;;228.35;110.03;;;2.20;99.90;;;;;;5054162;28;20525;-75
2022/03/05 00:18:02;;;;;;;238.10;117.03;;;2.20;99.90;;;;;;5053605;28;20029;-75
2022/03/05 00:20:28;;;;;;;220.00;109.43;;;2.20;99.90;;;;;;5053624;28;20368;-75
2022/03/05 00:22:54;;;;;;;232.45;112.65;;;2.20;99.90;;;;;;5054037;28;20021;-75
2022/03/05 00:25:21;;;;;;;235.27;111.22;;;2.10;99.90;;;;;;5053222;28;20134;-75
2022/03/05 00:27:47;;;;;;;232.25;108.00;;;2.10;99.90;;;;;;5053571;28;20025;-75
2022/03/05 00:30:13;;;;;;;228.25;111.07;;;2.00;99.90;;;;;;5053229;28;20121;-76
2022/03/05 00:32:39;;;;;;;227.20;108.25;;;1.90;99.90;;;;;;5053679;28;20464;-76
2022/03/05 00:35:06;;;;;;;214.45;105.55;;;1.90;99.90;;;;;;5053658;28;20024;-75
2022/03/05 00:37:33;;;;;;;223.63;110.13;;;1.90;99.90;;;;;;5053427;28;20108;-75
2022/03/05 00:39:59;;;;;;;218.65;106.05;;;1.90;99.90;;;;;;5053237;28;20025;-75
2022/03/05 00:42:26;;;;;;;226.18;109.05;;;1.80;99.90;;;;;;5053438;28;20068;-75
2022/03/05 00:44:51;;;;;;;215.90;107.68;;;1.80;99.90;;;;;;5053634;28;20064;-76
2022/03/05 00:47:17;;;;;;;249.30;117.60;;;1.70;99.90;;;;;;5053510;28;20024;-75
2022/03/05 00:49:43;;;;;;;252.77;117.80;;;1.70;99.90;;;;;;5050787;28;20021;-75
2022/03/05 00:52:10;;;;;;;256.92;124.40;;;1.70;99.90;;;;;;5053194;28;20021;-76
2022/03/05 00:54:35;;;;;;;227.60;109.57;;;1.70;99.90;;;;;;5053236;28;20104;-75
2022/03/05 00:57:02;;;;;;;248.95;117.97;;;1.70;99.90;;;;;;5053399;28;20099;-77
2022/03/05 00:59:28;;;;;;;250.35;117.88;;;1.70;99.90;;;;;;5052734;28;20383;-76
2022/03/05 01:01:55;;;;;;;229.70;111.13;;;1.70;99.90;;;;;;5053174;28;20025;-76
2022/03/05 01:04:20;;;;;;;240.80;115.32;;;1.70;99.90;;;;;;5052818;28;20524;-75
2022/03/05 01:06:46;;;;;;;224.15;108.47;;;1.70;99.90;;;;;;5052805;28;20037;-76
2022/03/05 01:09:12;;;;;;;205.68;98.93;;;1.80;99.90;;;;;;5053003;28;20024;-75
2022/03/05 01:11:38;;;;;;;203.57;99.10;;;1.70;99.90;;;;;;5053055;28;20472;-75
2022/03/05 01:14:04;;;;;;;186.88;92.57;;;1.70;99.90;;;;;;5053299;28;20446;-75
2022/03/05 01:16:30;;;;;;;181.20;89.82;;;1.70;99.90;;;;;;5052669;28;20047;-75
2022/03/05 01:18:56;;;;;;;164.43;80.20;;;1.70;99.90;;;;;;5052705;28;20112;-76
2022/03/05 01:21:22;;;;;;;156.80;80.78;;;1.60;99.90;;;;;;5051544;28;20051;-76
2022/03/05 01:23:47;;;;;;;155.00;80.45;;;1.60;99.90;;;;;;5052678;28;20033;-76
2022/03/05 01:26:13;;;;;;;169.30;79.07;;;1.50;99.90;;;;;;5052328;28;20379;-76
2022/03/05 01:28:39;;;;;;;161.93;79.45;;;1.50;99.90;;;;;;5052395;28;20042;-75
2022/03/05 01:31:05;;;;;;;169.73;81.95;;;1.50;99.90;;;;;;5052957;28;20024;-76
2022/03/05 01:33:31;;;;;;;164.45;78.82;;;1.50;99.90;;;;;;5052222;28;20096;-75
2022/03/05 01:35:57;;;;;;;173.95;85.82;;;1.50;99.90;;;;;;5051883;28;20122;-75
2022/03/05 01:38:22;;;;;;;175.35;83.80;;;1.50;99.90;;;;;;5051947;28;20021;-76
2022/03/05 01:40:48;;;;;;;177.10;87.13;;;1.50;99.90;;;;;;5052338;28;20376;-76
2022/03/05 01:43:14;;;;;;;191.43;92.63;;;1.40;99.90;;;;;;5052470;28;20448;-74
2022/03/05 01:45:40;;;;;;;276.10;122.38;;;1.30;99.90;;;;;;5052136;28;20063;-75
2022/03/05 01:48:06;;;;;;;252.32;114.90;;;1.30;99.90;;;;;;5052234;28;20040;-75
2022/03/05 01:50:32;;;;;;;378.25;154.65;;;1.30;99.90;;;;;;5052304;28;20521;-76
2022/03/05 01:52:59;;;;;;;420.17;174.80;;;1.30;99.90;;;;;;5052102;28;20029;-75
2022/03/05 01:55:25;;;;;;;373.83;158.00;;;1.20;99.90;;;;;;5052175;28;20021;-75
2022/03/05 01:57:51;;;;;;;434.83;176.68;;;1.20;99.90;;;;;;5052268;28;20082;-75
2022/03/05 02:00:18;;;;;;;1018.95;416.27;;;1.10;99.90;;;;;;5052033;28;20044;-74
2022/03/05 02:02:45;;;;;;;832.25;338.50;;;1.10;99.90;;;;;;5049539;28;20379;-75
2022/03/05 02:05:12;;;;;;;1030.72;385.42;;;1.10;99.90;;;;;;5052136;28;20024;-74
2022/03/05 02:07:38;;;;;;;1513.45;569.88;;;1.10;99.90;;;;;;5052051;28;20021;-74
2022/03/05 02:10:06;;;;;;;989.65;410.30;;;1.10;99.90;;;;;;5049636;28;20023;-75
2022/03/05 02:12:33;;;;;;;848.72;381.13;;;1.10;99.90;;;;;;5052111;28;20025;-75
2022/03/05 02:15:00;;;;;;;548.45;238.80;;;1.10;99.90;;;;;;5051576;28;20021;-75
2022/03/05 02:17:27;;;;;;;392.17;166.48;;;1.10;99.90;;;;;;5052114;28;20029;-75
2022/03/05 02:19:53;;;;;;;297.27;130.05;;;1.10;99.90;;;;;;5052031;28;20087;-75
2022/03/05 02:22:19;;;;;;;348.95;147.13;;;1.10;99.90;;;;;;5052182;28;20104;-74
2022/03/05 02:24:47;;;;;;;273.67;122.68;;;1.10;99.90;;;;;;5052156;28;20524;-73
2022/03/05 02:27:13;;;;;;;242.38;108.28;;;1.00;99.90;;;;;;5051725;28;20052;-74
2022/03/05 02:29:39;;;;;;;236.82;102.53;;;1.10;99.90;;;;;;5051529;28;20483;-75
2022/03/05 02:32:05;;;;;;;188.52;88.82;;;1.00;99.90;;;;;;5051983;28;20013;-75
2022/03/05 02:34:31;;;;;;;175.02;77.00;;;1.10;99.90;;;;;;5051978;28;20028;-75
2022/03/05 02:36:57;;;;;;;172.95;78.72;;;1.10;99.90;;;;;;5051632;28;20033;-75
2022/03/05 02:39:24;;;;;;;204.98;91.25;;;1.10;99.90;;;;;;5051839;28;20017;-74
2022/03/05 02:41:51;;;;;;;169.70;76.88;;;1.00;99.90;;;;;;5051670;28;20028;-75
2022/03/05 02:44:17;;;;;;;176.82;79.70;;;1.00;99.90;;;;;;5050365;28;20032;-75
2022/03/05 02:46:43;;;;;;;198.75;89.60;;;1.10;99.90;;;;;;5051409;28;20025;-74
2022/03/05 02:49:09;;;;;;;224.68;98.18;;;1.10;99.90;;;;;;5054298;28;20467;-75
2022/03/05 02:51:35;;;;;;;305.08;133.27;;;1.10;99.90;;;;;;5055520;28;20028;-75
2022/03/05 02:54:01;;;;;;;261.10;114.78;;;1.10;99.90;;;;;;5054154;28;20024;-74
2022/03/05 02:56:26;;;;;;;265.42;117.90;;;1.00;99.90;;;;;;5055479;28;20386;-74
2022/03/05 02:58:52;;;;;;;207.98;98.07;;;1.10;99.90;;;;;;5055391;28;20029;-74
2022/03/05 03:01:18;;;;;;;185.40;84.03;;;1.10;99.90;;;;;;5055446;28;20021;-75
2022/03/05 03:03:44;;;;;;;126.53;55.92;;;1.10;99.90;;;;;;5052523;28;20398;-75
2022/03/05 03:06:10;;;;;;;126.43;55.97;;;1.10;99.90;;;;;;5055439;28;20052;-74
2022/03/05 03:08:36;;;;;;;223.57;73.40;;;1.20;99.90;;;;;;5054021;28;20080;-74
2022/03/05 03:11:02;;;;;;;95.10;45.50;;;1.20;99.90;;;;;;5054838;28;20031;-75
2022/03/05 03:13:28;;;;;;;93.18;43.05;;;1.20;99.90;;;;;;5055337;28;20511;-75
2022/03/05 03:15:53;;;;;;;97.95;44.85;;;1.30;99.90;;;;;;5055489;28;20035;-75
2022/03/05 03:18:20;;;;;;;90.32;40.88;;;1.30;99.90;;;;;;5054613;28;20056;-75
2022/03/05 03:20:46;;;;;;;325.58;92.93;;;1.30;99.90;;;;;;5055210;28;20024;-75
2022/03/05 03:23:12;;;;;;;297.90;98.95;;;1.40;99.90;;;;;;5055329;28;20071;-74
2022/03/05 03:25:40;;;;;;;683.47;231.60;;;1.40;99.90;;;;;;5054847;28;20017;-74
2022/03/05 03:28:07;;;;;;;570.17;193.95;;;1.50;99.90;;;;;;5052175;28;20405;-74
2022/03/05 03:30:33;;;;;;;487.33;177.77;;;1.50;99.90;;;;;;5054896;28;20067;-75
2022/03/05 03:32:59;;;;;;;266.85;98.82;;;1.60;99.90;;;;;;5054654;28;20070;-76
2022/03/05 03:35:24;;;;;;;178.60;72.85;;;1.60;99.90;;;;;;5052338;28;20438;-74
2022/03/05 03:37:50;;;;;;;152.68;62.97;;;1.60;99.90;;;;;;5055874;28;20037;-74
2022/03/05 03:40:18;;;;;;;105.80;45.60;;;1.60;99.90;;;;;;5055635;28;20468;-74
2022/03/05 03:42:45;;;;;;;256.42;102.70;;;1.60;99.90;;;;;;5055766;28;20387;-75
2022/03/05 03:45:12;;;;;;;207.13;80.13;;;1.60;99.90;;;;;;5056048;28;20032;-74
2022/03/05 03:47:40;;;;;;;174.32;72.97;;;1.60;99.90;;;;;;5056155;28;20060;-75
2022/03/05 03:50:07;;;;;;;122.28;53.58;;;1.60;99.90;;;;;;5056091;28;20104;-75
2022/03/05 03:52:33;;;;;;;151.82;63.88;;;1.70;99.90;;;;;;5055582;28;20147;-75
2022/03/05 03:54:59;;;;;;;149.98;68.80;;;1.60;99.90;;;;;;5055841;28;20107;-75
2022/03/05 03:57:25;;;;;;;129.27;59.83;;;1.60;99.90;;;;;;5054738;28;20452;-74
2022/03/05 03:59:54;;;;;;;114.53;53.35;;;1.60;99.90;;;;;;5054087;28;20136;-74
2022/03/05 04:02:22;;;;;;;104.78;49.10;;;1.60;99.90;;;;;;5055336;28;20036;-73
2022/03/05 04:04:48;;;;;;;111.10;49.75;;;1.60;99.90;;;;;;5055224;28;20033;-76
2022/03/05 04:09:58;;;;;;;115.10;50.63;;;1.60;99.90;;;;;;5055518;28;20068;-74
2022/03/05 04:12:24;;;;;;;166.30;72.72;;;1.60;99.90;;;;;;5054005;28;20061;-74
2022/03/05 04:14:50;;;;;;;172.60;77.60;;;1.50;99.90;;;;;;5054851;28;20375;-75
2022/03/05 04:17:16;;;;;;;215.65;85.53;;;1.50;99.90;;;;;;5055029;28;20033;-75
2022/03/05 04:19:42;;;;;;;224.73;88.20;;;1.40;99.90;;;;;;5055248;28;20444;-74
2022/03/05 04:22:08;;;;;;;175.88;77.00;;;1.30;99.90;;;;;;5053780;28;20037;-74
2022/03/05 04:24:34;;;;;;;171.40;73.72;;;1.30;99.90;;;;;;5055355;28;20490;-75
2022/03/05 04:27:00;;;;;;;158.77;71.43;;;1.30;99.90;;;;;;5055142;28;20379;-73
2022/03/05 04:29:26;;;;;;;158.75;69.38;;;1.30;99.90;;;;;;5054627;28;20056;-75
2022/03/05 04:31:51;;;;;;;151.85;67.05;;;1.30;99.90;;;;;;5054874;28;20384;-73
2022/03/05 04:34:18;;;;;;;116.63;54.45;;;1.30;99.90;;;;;;5055129;28;20025;-74
2022/03/05 04:36:44;;;;;;;142.98;60.70;;;1.30;99.90;;;;;;5054673;28;20033;-74
2022/03/05 04:39:10;;;;;;;144.38;60.25;;;1.30;99.90;;;;;;5054574;28;20055;-74
2022/03/05 04:41:36;;;;;;;140.05;59.40;;;1.30;99.90;;;;;;5054333;28;20082;-74
2022/03/05 04:44:02;;;;;;;154.25;63.60;;;1.30;99.90;;;;;;5054785;28;20029;-73
2022/03/05 04:46:28;;;;;;;127.03;53.70;;;1.30;99.90;;;;;;5054435;28;20029;-73
2022/03/05 04:48:54;;;;;;;102.43;45.65;;;1.20;99.90;;;;;;5053788;28;20032;-73
2022/03/05 04:51:20;;;;;;;101.28;42.55;;;1.10;99.90;;;;;;5053881;28;20025;-75
2022/03/05 04:53:45;;;;;;;79.25;36.78;;;1.10;99.90;;;;;;5054393;28;20111;-75
2022/03/05 04:56:11;;;;;;;80.88;36.28;;;1.10;99.90;;;;;;5054449;28;20444;-74
2022/03/05 04:58:37;;;;;;;81.28;35.08;;;1.10;99.90;;;;;;5054553;28;20470;-73
2022/03/05 05:01:03;;;;;;;78.90;35.25;;;1.10;99.90;;;;;;5054169;28;20101;-74
2022/03/05 05:03:29;;;;;;;80.65;35.22;;;1.00;99.90;;;;;;5054082;28;20032;-72
2022/03/05 05:05:56;;;;;;;83.22;35.92;;;1.00;99.90;;;;;;5054422;28;20110;-73
2022/03/05 05:08:21;;;;;;;76.10;34.28;;;1.00;99.90;;;;;;5054221;28;20049;-74
2022/03/05 05:10:47;;;;;;;80.03;36.53;;;0.90;99.90;;;;;;5053780;28;20114;-74
2022/03/05 05:13:13;;;;;;;86.65;39.58;;;0.90;99.90;;;;;;5053865;28;20033;-73
2022/03/05 05:15:39;;;;;;;87.85;38.35;;;0.90;99.90;;;;;;5054385;28;20040;-75
2022/03/05 05:18:04;;;;;;;90.57;40.40;;;0.80;99.90;;;;;;5053662;28;20029;-74
2022/03/05 05:20:30;;;;;;;86.50;39.50;;;0.80;99.90;;;;;;5053784;28;20108;-74
2022/03/05 05:22:56;;;;;;;86.38;39.75;;;0.80;99.90;;;;;;5054411;28;20147;-74
2022/03/05 05:25:22;;;;;;;96.75;40.97;;;0.80;99.90;;;;;;5054204;28;20108;-75
2022/03/05 05:27:48;;;;;;;89.43;40.17;;;0.80;99.90;;;;;;5053651;28;20448;-74
2022/03/05 05:30:14;;;;;;;80.55;37.47;;;0.80;99.90;;;;;;5053899;28;20049;-73
2022/03/05 05:32:40;;;;;;;81.80;37.33;;;0.80;99.90;;;;;;5053201;28;20396;-74
2022/03/05 05:35:06;;;;;;;82.28;36.58;;;0.80;99.90;;;;;;5052995;28;20028;-74
2022/03/05 05:37:32;;;;;;;89.53;38.08;;;0.80;99.90;;;;;;5053321;28;20108;-74
2022/03/05 05:39:57;;;;;;;93.82;41.58;;;0.90;99.90;;;;;;5053778;28;20482;-72
2022/03/05 05:42:23;;;;;;;104.47;43.97;;;0.90;99.90;;;;;;5053367;28;20029;-73
2022/03/05 05:44:49;;;;;;;110.47;46.05;;;0.90;99.90;;;;;;5053570;28;20052;-75
2022/03/05 05:47:15;;;;;;;166.68;65.13;;;0.90;99.90;;;;;;5053776;28;20065;-73
2022/03/05 05:49:41;;;;;;;203.90;82.70;;;1.00;99.90;;;;;;5053325;28;20422;-73
2022/03/05 05:52:07;;;;;;;173.93;67.57;;;1.00;99.90;;;;;;5053687;28;20021;-75
2022/03/05 05:54:33;;;;;;;139.43;56.60;;;1.00;99.90;;;;;;5053439;28;20379;-74
2022/03/05 05:56:59;;;;;;;135.65;56.30;;;1.00;99.90;;;;;;5053147;28;20032;-74
2022/03/05 05:59:25;;;;;;;105.22;51.58;;;1.10;99.90;;;;;;5053526;28;20048;-74
2022/03/05 06:01:50;;;;;;;109.68;48.40;;;1.10;99.90;;;;;;5053545;28;20107;-74
2022/03/05 06:04:16;;;;;;;122.57;51.67;;;1.10;99.90;;;;;;5053385;28;20112;-73
2022/03/05 06:06:42;;;;;;;101.80;43.97;;;1.20;99.90;;;;;;5052952;28;20037;-73
2022/03/05 06:09:08;;;;;;;102.22;45.72;;;1.30;99.90;;;;;;5053032;28;20044;-74
2022/03/05 06:11:34;;;;;;;118.22;46.42;;;1.30;99.90;;;;;;5053086;28;20021;-75
2022/03/05 06:14:00;;;;;;;103.65;45.28;;;1.30;99.90;;;;;;5053234;28;20075;-74
2022/03/05 06:16:25;;;;;;;110.57;46.15;;;1.40;99.90;;;;;;5052950;28;20115;-76
2022/03/05 06:18:51;;;;;;;108.72;45.00;;;1.50;99.90;;;;;;5053153;28;20033;-74
2022/03/05 06:21:17;;;;;;;115.47;48.67;;;1.50;99.90;;;;;;5052971;28;20091;-75
2022/03/05 06:23:43;;;;;;;99.45;45.35;;;1.60;99.90;;;;;;5055102;28;20025;-74
2022/03/05 06:26:09;;;;;;;86.22;39.38;;;1.70;99.90;;;;;;5057420;28;20029;-76
2022/03/05 06:28:35;;;;;;;94.15;41.65;;;1.70;99.90;;;;;;5056970;28;20039;-75
2022/03/05 06:31:02;;;;;;;106.63;45.78;;;1.80;99.90;;;;;;5057220;28;20025;-75
2022/03/05 06:33:28;;;;;;;119.95;51.80;;;1.90;99.90;;;;;;5057168;28;20025;-75
2022/03/05 06:35:54;;;;;;;96.32;45.75;;;2.00;99.90;;;;;;5055964;28;20039;-75
2022/03/05 06:38:21;;;;;;;108.60;48.35;;;2.10;99.90;;;;;;5056984;28;20025;-75
2022/03/05 06:40:47;;;;;;;119.57;58.65;;;2.10;99.90;;;;;;5056922;28;20096;-76
2022/03/05 06:43:13;;;;;;;89.05;41.47;;;2.20;99.90;;;;;;5056732;28;20024;-76
2022/03/05 06:45:39;;;;;;;109.07;49.38;;;2.20;99.90;;;;;;5057040;28;20422;-77
2022/03/05 06:48:05;;;;;;;76.10;34.17;;;2.40;99.90;;;;;;5056796;28;20075;-76
2022/03/05 06:50:31;;;;;;;78.80;32.67;;;2.30;99.90;;;;;;5056892;28;20029;-76
2022/03/05 06:52:57;;;;;;;76.30;32.58;;;2.30;99.90;;;;;;5056875;28;20082;-76
2022/03/05 06:55:23;;;;;;;64.65;27.95;;;2.30;99.90;;;;;;5056843;28;20112;-75
2022/03/05 06:57:49;;;;;;;70.10;32.85;;;2.40;99.90;;;;;;5056820;28;20036;-75
2022/03/05 07:00:16;;;;;;;65.32;31.65;;;2.50;99.90;;;;;;5057008;28;20036;-75
2022/03/05 07:02:42;;;;;;;67.43;32.75;;;2.50;99.90;;;;;;5056658;28;20033;-76
2022/03/05 07:05:09;;;;;;;57.58;28.25;;;2.80;99.90;;;;;;5055974;28;20060;-75
2022/03/05 07:07:36;;;;;;;65.32;30.33;;;2.70;99.90;;;;;;5056451;28;20064;-76
2022/03/05 07:10:03;;;;;;;73.95;32.63;;;2.70;99.90;;;;;;5055974;28;20021;-76
2022/03/05 07:12:29;;;;;;;68.97;29.77;;;3.00;99.90;;;;;;5055926;28;20048;-76
2022/03/05 07:14:55;;;;;;;59.28;28.20;;;3.10;98.80;;;;;;5055828;28;20045;-76
2022/03/05 07:17:21;;;;;;;61.42;29.73;;;3.20;98.00;;;;;;5055941;28;20039;-77
2022/03/05 07:19:47;;;;;;;82.70;39.47;;;3.10;96.80;;;;;;5056291;28;20512;-76
2022/03/05 07:22:12;;;;;;;81.88;38.05;;;3.30;97.40;;;;;;5056166;28;20044;-77
2022/03/05 07:24:38;;;;;;;67.57;33.53;;;3.60;97.60;;;;;;5053171;28;20087;-76
2022/03/05 07:27:04;;;;;;;85.07;36.78;;;3.70;95.00;;;;;;5055609;28;20024;-75
2022/03/05 07:29:30;;;;;;;85.30;39.35;;;3.60;94.50;;;;;;5055674;28;20048;-76
2022/03/05 07:31:56;;;;;;;76.07;36.58;;;3.80;95.10;;;;;;5055851;28;20017;-75
2022/03/05 07:34:22;;;;;;;69.72;32.55;;;4.00;93.70;;;;;;5056102;28;20024;-75
2022/03/05 07:36:47;;;;;;;64.50;33.22;;;4.30;92.80;;;;;;5055507;28;20503;-75
2022/03/05 07:39:13;;;;;;;71.97;34.35;;;4.20;92.90;;;;;;5055789;28;20064;-76
2022/03/05 07:41:39;;;;;;;57.85;29.77;;;4.40;91.80;;;;;;5055716;28;20033;-76
2022/03/05 07:44:06;;;;;;;64.78;32.47;;;4.50;91.00;;;;;;5055510;28;20063;-75
2022/03/05 07:46:34;;;;;;;57.67;30.27;;;4.40;90.60;;;;;;5055703;28;20055;-76
2022/03/05 07:49:00;;;;;;;54.03;29.38;;;4.40;90.40;;;;;;5052848;28;20063;-75
2022/03/05 07:51:26;;;;;;;60.53;31.27;;;4.50;89.20;;;;;;5054952;28;20057;-76
2022/03/05 07:53:52;;;;;;;67.95;31.42;;;4.80;90.00;;;;;;5053056;28;20021;-76
2022/03/05 07:56:19;;;;;;;63.08;30.65;;;4.60;88.00;;;;;;5055506;28;20043;-76
2022/03/05 07:58:46;;;;;;;54.33;30.00;;;4.90;87.40;;;;;;5054477;28;20032;-77
2022/03/05 08:01:12;;;;;;;65.35;34.00;;;5.30;86.60;;;;;;5051537;28;20505;-77
2022/03/05 08:03:38;;;;;;;56.15;29.30;;;5.30;85.70;;;;;;5055346;28;20017;-77
2022/03/05 08:06:04;;;;;;;60.40;29.00;;;5.40;84.30;;;;;;5053820;28;20027;-77
2022/03/05 08:08:30;;;;;;;53.75;28.65;;;5.30;82.00;;;;;;5054890;28;20044;-76
2022/03/05 08:10:56;;;;;;;52.15;27.45;;;5.40;83.20;;;;;;5054791;28;20021;-73
2022/03/05 08:13:22;;;;;;;49.85;27.17;;;5.50;81.40;;;;;;5053260;28;20025;-75
2022/03/05 08:15:49;;;;;;;49.97;25.23;;;5.70;80.60;;;;;;5054722;28;20468;-75
2022/03/05 08:18:14;;;;;;;50.35;27.17;;;5.70;80.00;;;;;;5055103;28;20028;-75
2022/03/05 08:20:40;;;;;;;58.63;32.28;;;5.90;80.40;;;;;;5054669;28;20462;-75
2022/03/05 08:23:06;;;;;;;52.13;28.48;;;6.20;81.50;;;;;;5054591;28;20036;-76
2022/03/05 08:25:32;;;;;;;48.20;26.92;;;6.20;80.40;;;;;;5053839;28;20090;-75
2022/03/05 08:27:58;;;;;;;46.65;25.65;;;6.20;80.50;;;;;;5054320;28;20033;-76
2022/03/05 08:30:25;;;;;;;52.92;26.17;;;6.30;79.30;;;;;;5054038;28;20044;-76
2022/03/05 08:32:50;;;;;;;46.70;25.55;;;6.60;79.30;;;;;;5054384;28;20060;-75
2022/03/05 08:35:17;;;;;;;58.80;30.95;;;6.80;78.40;;;;;;5053515;28;20434;-76
2022/03/05 08:37:43;;;;;;;61.97;31.20;;;7.00;77.00;;;;;;5052622;28;20032;-75
2022/03/05 08:40:11;;;;;;;457.70;221.65;;;7.00;77.50;;;;;;5053880;28;20112;-76
2022/03/05 08:42:37;;;;;;;94.57;51.28;;;7.30;76.60;;;;;;5054040;28;20442;-75
2022/03/05 08:45:06;;;;;;;55.38;30.40;;;7.40;75.40;;;;;;5054412;28;20052;-75
2022/03/05 08:47:33;;;;;;;48.95;28.38;;;7.10;75.00;;;;;;5054047;28;20025;-76
2022/03/05 08:49:59;;;;;;;64.85;37.13;;;6.90;75.50;;;;;;5054273;28;20104;-76
2022/03/05 08:52:25;;;;;;;53.42;28.90;;;7.20;75.60;;;;;;5054157;28;20104;-76
2022/03/05 08:54:51;;;;;;;55.60;31.20;;;7.40;74.40;;;;;;5053840;28;20025;-76
2022/03/05 08:57:17;;;;;;;68.13;33.50;;;7.50;75.50;;;;;;5054136;28;20650;-76
2022/03/05 08:59:42;;;;;;;62.15;36.08;;;7.50;74.20;;;;;;5054215;28;20027;-75
2022/03/05 09:02:08;;;;;;;47.90;26.55;;;7.40;72.30;;;;;;5054010;28;20029;-75
2022/03/05 09:04:34;;;;;;;65.05;37.47;;;7.50;71.60;;;;;;5054269;28;20021;-75
2022/03/05 09:07:01;;;;;;;45.60;24.75;;;7.80;70.60;;;;;;5054055;28;20028;-75
2022/03/05 09:09:27;;;;;;;44.65;26.50;;;7.60;70.30;;;;;;5054208;28;20048;-75
2022/03/05 09:11:53;;;;;;;59.58;32.38;;;7.50;71.40;;;;;;5053557;28;20475;-75
2022/03/05 09:14:19;;;;;;;53.80;30.60;;;7.40;71.40;;;;;;5054240;28;20037;-75
2022/03/05 09:16:45;;;;;;;44.40;23.98;;;7.60;70.90;;;;;;5053422;28;20056;-75
2022/03/05 09:19:11;;;;;;;47.50;27.55;;;7.70;70.10;;;;;;5053687;28;20036;-75
2022/03/05 09:21:37;;;;;;;39.85;22.35;;;8.00;70.40;;;;;;5053642;28;20021;-76
2022/03/05 09:24:04;;;;;;;47.17;24.42;;;7.80;69.80;;;;;;5053505;28;20025;-74
2022/03/05 09:26:31;;;;;;;53.25;29.73;;;8.00;69.30;;;;;;5053691;28;20021;-75
2022/03/05 09:28:56;;;;;;;46.70;25.08;;;7.90;69.80;;;;;;5053320;28;20487;-74
2022/03/05 09:31:22;;;;;;;43.47;23.73;;;8.40;69.60;;;;;;5053597;28;20035;-76
2022/03/05 09:33:48;;;;;;;57.85;31.15;;;8.60;66.70;;;;;;5052157;28;20029;-75
2022/03/05 09:36:14;;;;;;;83.72;43.65;;;8.40;66.50;;;;;;5053456;28;20082;-75
2022/03/05 09:38:40;;;;;;;133.32;65.22;;;8.40;66.90;;;;;;5053676;28;20033;-75
2022/03/05 09:41:07;;;;;;;41.63;22.00;;;8.30;66.90;;;;;;5053863;28;20086;-74
2022/03/05 09:43:34;;;;;;;44.30;26.40;;;8.80;65.70;;;;;;5053776;28;20024;-74
2022/03/05 09:46:00;;;;;;;67.85;34.83;;;9.00;64.80;;;;;;5053804;28;20029;-74
2022/03/05 09:48:27;;;;;;;81.38;41.33;;;8.80;64.20;;;;;;5053515;28;20021;-74
2022/03/05 09:50:53;;;;;;;57.28;31.20;;;9.10;63.00;;;;;;5053846;28;20459;-73
2022/03/05 09:53:23;;;;;;;65.47;37.25;;;9.50;63.20;;;;;;5053765;28;20017;-75
2022/03/05 09:55:50;;;;;;;50.92;29.30;;;9.30;63.70;;;;;;5053894;28;20060;-73
2022/03/05 09:58:16;;;;;;;55.42;29.73;;;9.20;63.00;;;;;;5052060;28;20029;-73
2022/03/05 10:00:43;;;;;;;65.25;33.75;;;9.50;63.00;;;;;;5053180;28;20029;-73
2022/03/05 10:03:12;;;;;;;67.40;35.55;;;9.90;62.80;;;;;;5053336;28;20013;-73
2022/03/05 10:05:38;;;;;;;88.93;44.30;;;10.30;61.30;;;;;;5050534;28;20108;-73
2022/03/05 10:08:11;;;;;;;49.53;26.75;;;10.70;60.10;;;;;;5053377;28;20574;-74
2022/03/05 10:10:49;;;;;;;51.60;27.58;;;10.90;59.50;;;;;;5052174;28;20482;-73
2022/03/05 10:13:36;;;;;;;49.53;27.88;;;11.00;58.20;;;;;;5053363;28;20029;-73
2022/03/05 10:16:20;;;;;;;78.38;39.88;;;10.70;59.80;;;;;;5053126;28;20183;-73
2022/03/05 10:18:46;;;;;;;42.78;24.73;;;10.70;58.60;;;;;;5052532;28;20105;-74
2022/03/05 10:21:12;;;;;;;45.17;24.23;;;9.80;58.80;;;;;;5053015;28;20166;-73
2022/03/05 10:23:47;;;;;;;46.20;25.15;;;9.60;59.30;;;;;;5053074;28;20021;-73
2022/03/05 10:26:15;;;;;;;52.20;28.40;;;9.30;61.00;;;;;;5053270;28;20033;-72
2022/03/05 10:28:41;;;;;;;43.72;24.67;;;9.30;61.00;;;;;;5053138;28;20113;-73
2022/03/05 10:31:10;;;;;;;51.42;28.77;;;9.20;61.30;;;;;;5052823;28;20017;-73
2022/03/05 10:33:38;;;;;;;71.38;37.28;;;8.80;61.20;;;;;;5052874;28;20056;-74
2022/03/05 10:36:09;;;;;;;48.45;25.85;;;8.70;62.30;;;;;;5052555;28;20025;-74
2022/03/05 10:38:44;;;;;;;48.78;25.35;;;9.20;61.40;;;;;;5052782;28;20107;-74
2022/03/05 10:41:10;;;;;;;43.92;24.45;;;9.10;60.80;;;;;;5049683;28;20033;-74
2022/03/05 10:43:36;;;;;;;46.47;25.08;;;9.30;60.60;;;;;;5052478;28;20464;-74
2022/03/05 10:46:02;;;;;;;56.63;30.30;;;9.30;61.60;;;;;;5052650;28;20124;-75
2022/03/05 10:48:32;;;;;;;54.30;28.67;;;9.30;60.10;;;;;;5049017;28;20112;-74
2022/03/05 10:51:13;;;;;;;38.92;22.08;;;9.00;59.30;;;;;;5052725;28;20021;-74
2022/03/05 10:53:46;;;;;;;44.75;25.30;;;9.00;60.70;;;;;;5051146;28;20028;-73
2022/03/05 10:56:24;;;;;;;45.22;23.88;;;9.20;60.40;;;;;;5052145;28;20025;-75
2022/03/05 10:59:10;;;;;;;51.05;28.92;;;9.10;60.10;;;;;;5048743;28;20045;-73
2022/03/05 11:01:41;;;;;;;58.45;31.02;;;8.70;61.40;;;;;;5049272;28;20021;-74
2022/03/05 11:04:08;;;;;;;50.00;28.25;;;9.00;62.50;;;;;;5048056;28;20020;-73
2022/03/05 11:06:39;;;;;;;44.78;25.88;;;9.50;60.50;;;;;;5051555;28;20486;-74
2022/03/05 11:09:10;;;;;;;50.13;28.75;;;10.30;58.90;;;;;;5050876;28;20379;-74
2022/03/05 11:11:39;;;;;;;46.55;24.90;;;10.50;58.60;;;;;;5054560;28;20021;-74
2022/03/05 11:14:07;;;;;;;54.40;29.75;;;11.00;57.70;;;;;;5052072;28;20052;-74
2022/03/05 11:16:33;;;;;;;61.15;33.47;;;11.20;57.20;;;;;;5054744;28;20660;-73
2022/03/05 11:19:00;;;;;;;49.47;27.98;;;11.10;56.00;;;;;;5055700;28;20029;-74
2022/03/05 11:21:28;;;;;;;44.20;27.38;;;11.10;56.70;;;;;;5055962;28;20021;-74
2022/03/05 11:23:54;;;;;;;44.08;26.70;;;11.30;55.70;;;;;;5055911;28;20379;-74
2022/03/05 11:26:20;;;;;;;43.88;25.90;;;10.70;55.40;;;;;;5055900;28;20036;-74
2022/03/05 11:28:48;;;;;;;53.42;29.48;;;10.80;56.70;;;;;;5055333;28;20426;-74
2022/03/05 11:31:19;;;;;;;50.97;30.77;;;9.40;58.20;;;;;;5055873;28;20048;-74
2022/03/05 11:33:45;;;;;;;40.97;25.38;;;10.20;59.30;;;;;;5052110;28;20371;-74
2022/03/05 11:36:31;;;;;;;63.33;32.88;;;10.60;57.20;;;;;;5055525;28;20083;-74
2022/03/05 11:39:08;;;;;;;52.45;29.77;;;11.10;55.00;;;;;;5055684;28;20029;-74
2022/03/05 11:41:57;;;;;;;57.10;32.97;;;11.10;54.80;;;;;;5055234;28;20056;-74
2022/03/05 11:44:45;;;;;;;78.57;41.38;;;11.00;56.00;;;;;;5053343;28;20427;-74
2022/03/05 11:47:26;;;;;;;58.10;31.98;;;11.70;55.60;;;;;;5054881;28;20032;-75
2022/03/05 11:49:56;;;;;;;46.38;27.92;;;12.00;55.30;;;;;;5055843;28;20087;-75
2022/03/05 11:52:22;;;;;;;44.15;26.33;;;12.10;52.70;;;;;;5055449;28;20024;-74
2022/03/05 11:55:27;;;;;;;49.50;29.73;;;12.50;52.20;;;;;;5052884;28;20017;-74
2022/03/05 11:57:52;;;;;;;46.95;26.27;;;12.50;52.80;;;;;;5033084;28;20160;-74
2022/03/05 12:00:19;;;;;;;46.17;26.70;;;11.40;52.70;;;;;;5033069;28;20021;-74
2022/03/05 12:02:46;;;;;;;46.75;26.42;;;11.80;54.50;;;;;;5032729;28;20037;-73
2022/03/05 12:05:38;;;;;;;70.50;36.28;;;10.60;53.70;;;;;;5033005;28;20499;-74
2022/03/05 12:08:33;;;;;;;100.15;48.85;;;9.70;56.40;;;;;;5022790;28;20640;-74
2022/03/05 12:11:13;;;;;;;66.70;35.72;;;9.40;58.20;;;;;;5012598;28;20108;-74
2022/03/05 12:13:46;;;;;;;104.65;53.88;;;9.20;58.50;;;;;;5027844;28;20509;-75
2022/03/05 12:16:24;;;;;;;83.72;42.55;;;10.00;58.20;;;;;;5032438;28;20088;-75
2022/03/05 12:18:50;;;;;;;53.47;29.88;;;10.90;58.20;;;;;;5030516;28;20035;-75
2022/03/05 12:21:33;;;;;;;46.63;24.65;;;10.90;56.00;;;;;;5031809;28;20095;-74
2022/03/05 12:24:09;;;;;;;45.47;24.40;;;10.00;56.00;;;;;;5031777;28;20487;-74
2022/03/05 12:26:41;;;;;;;45.35;23.08;;;10.00;56.60;;;;;;5032682;28;20032;-74
2022/03/05 12:29:08;;;;;;;51.63;27.30;;;10.80;55.70;;;;;;5046050;28;20047;-73
2022/03/05 12:31:42;;;;;;;67.65;34.13;;;10.90;55.40;;;;;;5054355;28;20360;-74